sensor_id;sensor_type;location;lat;lon;timestamp;P1;durP1;ratioP1;P2;durP2;ratioP2
57329;SDS011;43163;51.032;18.280;2023-04-24T00:08:16;9.50;;;7.10;;
57329;SDS011;43163;51.032;18.280;2023-04-24T00:18:07;7.70;;;6.90;;
57329;SDS011;43163;51.032;18.280;2023-04-24T00:27:58;8.30;;;6.50;;
57329;SDS011;43163;51.032;18.280;2023-04-24T00:37:50;5.50;;;4.10;;
57329;SDS011;43163;51.032;18.280;2023-04-24T00:47:41;7.70;;;5.80;;
57329;SDS011;43163;51.032;18.280;2023-04-24T00:57:35;7.70;;;6.40;;
57329;SDS011;43163;51.032;18.280;2023-04-24T01:07:28;7.60;;;5.00;;
57329;SDS011;43163;51.032;18.280;2023-04-24T01:17:19;9.40;;;4.90;;
57329;SDS011;43163;51.032;18.280;2023-04-24T01:27:11;8.50;;;6.50;;
57329;SDS011;43163;51.032;18.280;2023-04-24T01:44:29;10.70;;;7.10;;
57329;SDS011;43163;51.032;18.280;2023-04-24T01:54:23;7.10;;;5.40;;
57329;SDS011;43163;51.032;18.280;2023-04-24T02:04:15;10.70;;;5.80;;
57329;SDS011;43163;51.032;18.280;2023-04-24T02:14:06;11.30;;;7.80;;
57329;SDS011;43163;51.032;18.280;2023-04-24T02:23:58;11.40;;;8.70;;
57329;SDS011;43163;51.032;18.280;2023-04-24T02:33:46;11.50;;;6.90;;
57329;SDS011;43163;51.032;18.280;2023-04-24T03:05:16;13.60;;;6.60;;
57329;SDS011;43163;51.032;18.280;2023-04-24T03:15:07;7.40;;;6.40;;
57329;SDS011;43163;51.032;18.280;2023-04-24T03:25:05;7.20;;;6.10;;
57329;SDS011;43163;51.032;18.280;2023-04-24T03:34:59;8.10;;;6.80;;
57329;SDS011;43163;51.032;18.280;2023-04-24T03:44:49;9.70;;;7.70;;
57329;SDS011;43163;51.032;18.280;2023-04-24T03:54:41;7.40;;;6.40;;
57329;SDS011;43163;51.032;18.280;2023-04-24T04:04:33;6.10;;;5.20;;
57329;SDS011;43163;51.032;18.280;2023-04-24T04:14:25;9.30;;;5.60;;
57329;SDS011;43163;51.032;18.280;2023-04-24T04:24:22;16.50;;;7.60;;
57329;SDS011;43163;51.032;18.280;2023-04-24T04:34:14;11.20;;;7.80;;
57329;SDS011;43163;51.032;18.280;2023-04-24T11:40:02;5.40;;;4.90;;
57329;SDS011;43163;51.032;18.280;2023-04-24T11:50:17;5.90;;;5.00;;
57329;SDS011;43163;51.032;18.280;2023-04-24T12:00:25;7.60;;;6.30;;
57329;SDS011;43163;51.032;18.280;2023-04-24T12:10:32;5.70;;;5.20;;
57329;SDS011;43163;51.032;18.280;2023-04-24T12:20:30;3.00;;;2.70;;
57329;SDS011;43163;51.032;18.280;2023-04-24T12:30:28;5.70;;;5.10;;
57329;SDS011;43163;51.032;18.280;2023-04-24T12:40:24;9.50;;;4.90;;
57329;SDS011;43163;51.032;18.280;2023-04-24T12:50:24;5.20;;;4.60;;
57329;SDS011;43163;51.032;18.280;2023-04-24T13:00:28;11.20;;;4.90;;
57329;SDS011;43163;51.032;18.280;2023-04-24T13:10:17;4.70;;;4.20;;
57329;SDS011;43163;51.032;18.280;2023-04-24T13:20:08;4.80;;;4.30;;
57329;SDS011;43163;51.032;18.280;2023-04-24T13:30:00;11.10;;;4.40;;
57329;SDS011;43163;51.032;18.280;2023-04-24T13:47:14;5.60;;;5.00;;
57329;SDS011;43163;51.032;18.280;2023-04-24T13:57:05;5.60;;;4.70;;
57329;SDS011;43163;51.032;18.280;2023-04-24T14:06:54;12.20;;;6.40;;
57329;SDS011;43163;51.032;18.280;2023-04-24T14:16:44;5.70;;;4.70;;
57329;SDS011;43163;51.032;18.280;2023-04-24T14:26:36;14.00;;;10.50;;
57329;SDS011;43163;51.032;18.280;2023-04-24T14:36:28;7.90;;;5.70;;
57329;SDS011;43163;51.032;18.280;2023-04-24T14:46:20;11.70;;;7.90;;
57329;SDS011;43163;51.032;18.280;2023-04-24T14:56:09;10.50;;;8.30;;
57329;SDS011;43163;51.032;18.280;2023-04-24T15:06:00;11.10;;;7.80;;
57329;SDS011;43163;51.032;18.280;2023-04-24T15:15:50;11.90;;;8.20;;
57329;SDS011;43163;51.032;18.280;2023-04-24T15:25:41;9.60;;;8.60;;
57329;SDS011;43163;51.032;18.280;2023-04-24T15:35:35;9.10;;;8.30;;
57329;SDS011;43163;51.032;18.280;2023-04-24T15:45:25;9.60;;;7.90;;
57329;SDS011;43163;51.032;18.280;2023-04-24T15:55:22;11.40;;;9.20;;
57329;SDS011;43163;51.032;18.280;2023-04-24T16:05:14;11.90;;;9.90;;
57329;SDS011;43163;51.032;18.280;2023-04-24T16:15:08;18.10;;;10.40;;
57329;SDS011;43163;51.032;18.280;2023-04-24T16:25:02;15.30;;;12.70;;
57329;SDS011;43163;51.032;18.280;2023-04-24T16:34:56;13.50;;;11.10;;
57329;SDS011;43163;51.032;18.280;2023-04-24T17:26:54;17.70;;;15.30;;
57329;SDS011;43163;51.032;18.280;2023-04-24T17:36:48;20.30;;;15.80;;
57329;SDS011;43163;51.032;18.280;2023-04-24T17:46:40;18.60;;;14.60;;
57329;SDS011;43163;51.032;18.280;2023-04-24T17:56:30;20.40;;;16.20;;
57329;SDS011;43163;51.032;18.280;2023-04-24T18:06:21;17.90;;;14.80;;
57329;SDS011;43163;51.032;18.280;2023-04-24T18:16:14;19.80;;;10.40;;
57329;SDS011;43163;51.032;18.280;2023-04-24T18:26:10;24.50;;;14.20;;
57329;SDS011;43163;51.032;18.280;2023-04-24T18:43:27;6.70;;;5.20;;
57329;SDS011;43163;51.032;18.280;2023-04-24T18:53:17;7.00;;;4.50;;
57329;SDS011;43163;51.032;18.280;2023-04-24T19:03:07;6.70;;;5.30;;
57329;SDS011;43163;51.032;18.280;2023-04-24T19:12:59;5.10;;;3.50;;
57329;SDS011;43163;51.032;18.280;2023-04-24T19:22:53;10.40;;;3.20;;
57329;SDS011;43163;51.032;18.280;2023-04-24T19:32:42;2.80;;;2.60;;
57329;SDS011;43163;51.032;18.280;2023-04-24T19:42:32;0.80;;;0.80;;
57329;SDS011;43163;51.032;18.280;2023-04-24T19:52:21;5.00;;;3.90;;
57329;SDS011;43163;51.032;18.280;2023-04-24T20:02:12;6.00;;;3.20;;
57329;SDS011;43163;51.032;18.280;2023-04-24T20:12:02;7.20;;;4.00;;
57329;SDS011;43163;51.032;18.280;2023-04-24T20:21:51;9.60;;;3.40;;
57329;SDS011;43163;51.032;18.280;2023-04-24T20:31:40;4.50;;;3.50;;
57329;SDS011;43163;51.032;18.280;2023-04-24T20:41:34;11.20;;;5.60;;
57329;SDS011;43163;51.032;18.280;2023-04-24T20:51:24;7.20;;;5.60;;
57329;SDS011;43163;51.032;18.280;2023-04-24T21:01:14;7.40;;;6.60;;
57329;SDS011;43163;51.032;18.280;2023-04-24T21:11:03;7.60;;;4.60;;
57329;SDS011;43163;51.032;18.280;2023-04-24T21:20:52;5.00;;;4.50;;
57329;SDS011;43163;51.032;18.280;2023-04-24T21:30:40;5.70;;;3.70;;
57329;SDS011;43163;51.032;18.280;2023-04-24T21:40:29;2.80;;;2.60;;
57329;SDS011;43163;51.032;18.280;2023-04-24T21:50:17;3.30;;;2.70;;
57329;SDS011;43163;51.032;18.280;2023-04-24T22:00:06;5.70;;;3.90;;
57329;SDS011;43163;51.032;18.280;2023-04-24T22:09:59;7.40;;;3.30;;
57329;SDS011;43163;51.032;18.280;2023-04-24T22:19:50;5.00;;;4.10;;
57329;SDS011;43163;51.032;18.280;2023-04-24T22:29:39;13.00;;;6.10;;
57329;SDS011;43163;51.032;18.280;2023-04-24T23:26:58;10.60;;;7.60;;
57329;SDS011;43163;51.032;18.280;2023-04-24T23:36:48;13.00;;;8.40;;
57329;SDS011;43163;51.032;18.280;2023-04-24T23:46:36;9.40;;;7.20;;
57329;SDS011;43163;51.032;18.280;2023-04-24T23:56:25;11.10;;;7.50;;
